createdAt,value
2022-10-10T00:00:49.896Z,100224.06
2022-10-10T00:03:19.192Z,100212.50
2022-10-10T00:05:48.597Z,100216.97
2022-10-10T00:08:16.613Z,100213.34
2022-10-10T00:10:44.645Z,100212.22
2022-10-10T00:13:12.662Z,100204.59
2022-10-10T00:15:40.662Z,100200.16
2022-10-10T00:18:09.049Z,100196.47
2022-10-10T00:20:37.143Z,100193.44
2022-10-10T00:23:06.500Z,100195.69
2022-10-10T00:25:34.557Z,100188.88
2022-10-10T00:28:03.399Z,100197.38
2022-10-10T00:30:31.689Z,100192.16
2022-10-10T00:33:00.074Z,100190.16
2022-10-10T00:35:28.724Z,100186.44
2022-10-10T00:37:56.861Z,100191.84
2022-10-10T00:40:26.538Z,100188.69
2022-10-10T00:42:54.618Z,100184.53
2022-10-10T00:45:29.434Z,100183.75
2022-10-10T00:48:00.939Z,100177.88
2022-10-10T00:50:30.085Z,100178.13
2022-10-10T00:52:59.222Z,100184.06
2022-10-10T00:55:28.879Z,100181.84
2022-10-10T00:57:57.018Z,100175.88
2022-10-10T01:00:25.049Z,100172.78
2022-10-10T01:02:53.318Z,100175.44
2022-10-10T01:05:21.720Z,100172.81
2022-10-10T01:07:49.786Z,100173.44
2022-10-10T01:10:19.321Z,100177.63
2022-10-10T01:12:57.812Z,100172.34
2022-10-10T01:15:30.568Z,100165.44
2022-10-10T01:18:03.004Z,100171.66
2022-10-10T01:20:54.481Z,100167.50
2022-10-10T01:23:36.851Z,100165.44
2022-10-10T01:26:17.713Z,100162.69
2022-10-10T01:28:52.422Z,100164.53
2022-10-10T01:31:23.518Z,100166.41
2022-10-10T01:33:58.187Z,100153.59
2022-10-10T01:36:33.534Z,100164.00
2022-10-10T01:39:06.875Z,100157.78
2022-10-10T01:41:38.527Z,100156.94
2022-10-10T01:44:07.901Z,100142.31
2022-10-10T01:46:35.952Z,100151.84
2022-10-10T01:49:04.380Z,100154.38
2022-10-10T01:51:47.649Z,100154.47
2022-10-10T01:54:25.991Z,100152.47
2022-10-10T01:57:01.262Z,100150.25
2022-10-10T01:59:42.038Z,100139.34
2022-10-10T02:02:17.427Z,100140.13
2022-10-10T02:04:49.185Z,100141.34
2022-10-10T02:07:20.610Z,100136.56
2022-10-10T02:09:48.961Z,100133.56
2022-10-10T02:12:17.429Z,100139.81
2022-10-10T02:14:48.983Z,100130.63
2022-10-10T02:17:18.182Z,100127.31
2022-10-10T02:19:48.355Z,100135.00
2022-10-10T02:22:16.531Z,100131.81
2022-10-10T02:24:44.720Z,100132.00
2022-10-10T02:27:15.979Z,100130.00
2022-10-10T02:29:46.268Z,100125.16
2022-10-10T02:32:18.577Z,100126.94
2022-10-10T02:34:51.001Z,100126.28
2022-10-10T02:37:19.766Z,100115.47
2022-10-10T02:39:51.541Z,100120.44
2022-10-10T02:42:21.994Z,100130.38
2022-10-10T02:44:51.814Z,100124.28
2022-10-10T02:47:20.150Z,100122.13
2022-10-10T02:49:49.060Z,100130.91
2022-10-10T02:52:17.841Z,100130.69
2022-10-10T02:54:45.878Z,100119.19
2022-10-10T02:57:14.150Z,100129.34
2022-10-10T02:59:42.357Z,100118.56
2022-10-10T03:02:11.788Z,100121.28
2022-10-10T03:04:40.135Z,100120.47
2022-10-10T03:07:08.189Z,100116.25
2022-10-10T03:09:36.254Z,100118.41
2022-10-10T03:12:04.490Z,100112.81
2022-10-10T03:14:32.543Z,100117.44
2022-10-10T03:17:00.780Z,100125.97
2022-10-10T03:19:30.160Z,100122.91
2022-10-10T03:21:58.212Z,100123.41
2022-10-10T03:24:26.612Z,100126.81
2022-10-10T03:26:54.640Z,100118.78
2022-10-10T03:29:22.731Z,100123.19
2022-10-10T03:31:51.645Z,100123.88
2022-10-10T03:34:19.683Z,100124.22
2022-10-10T03:36:49.090Z,100118.00
2022-10-10T03:39:17.107Z,100115.25
2022-10-10T03:41:45.400Z,100109.00
2022-10-10T03:44:13.474Z,100118.28
2022-10-10T03:46:41.533Z,100112.16
2022-10-10T03:49:09.554Z,100101.19
2022-10-10T03:51:37.614Z,100108.06
2022-10-10T03:54:07.118Z,100100.47
2022-10-10T03:56:35.170Z,100101.84
2022-10-10T03:59:04.027Z,100092.81
2022-10-10T04:01:32.261Z,100098.34
2022-10-10T04:04:00.400Z,100097.03
2022-10-10T04:06:28.708Z,100095.09
2022-10-10T04:08:56.930Z,100086.34
2022-10-10T04:11:26.537Z,100080.44
2022-10-10T04:13:54.554Z,100092.00
2022-10-10T04:16:22.550Z,100087.34
2022-10-10T04:18:50.593Z,100086.66
2022-10-10T04:21:18.662Z,100090.31
2022-10-10T04:23:46.755Z,100085.94
2022-10-10T04:26:14.804Z,100090.00
2022-10-10T04:28:44.229Z,100080.63
2022-10-10T04:31:12.229Z,100082.13
2022-10-10T04:33:40.249Z,100082.59
2022-10-10T04:36:08.598Z,100086.69
2022-10-10T04:38:37.360Z,100090.31
2022-10-10T04:41:05.628Z,100089.91
2022-10-10T04:43:33.686Z,100086.66
2022-10-10T04:46:03.579Z,100091.59
2022-10-10T04:48:31.662Z,100091.44
2022-10-10T04:51:00.896Z,100080.31
2022-10-10T04:53:29.019Z,100086.38
2022-10-10T04:55:57.034Z,100089.38
2022-10-10T04:58:25.111Z,100085.25
2022-10-10T05:00:53.852Z,100078.81
2022-10-10T05:03:24.229Z,100086.47
2022-10-10T05:05:52.461Z,100080.44
2022-10-10T05:08:21.124Z,100080.91
2022-10-10T05:10:49.642Z,100075.00
2022-10-10T05:13:17.848Z,100071.03
2022-10-10T05:15:46.048Z,100075.66
2022-10-10T05:18:14.044Z,100078.03
2022-10-10T05:20:44.041Z,100081.97
2022-10-10T05:23:12.079Z,100079.47
2022-10-10T05:25:40.133Z,100075.38
2022-10-10T05:28:08.224Z,100076.09
2022-10-10T05:30:36.230Z,100076.50
2022-10-10T05:33:04.235Z,100079.47
2022-10-10T05:35:32.297Z,100078.56
2022-10-10T05:38:01.744Z,100075.69
2022-10-10T05:40:29.833Z,100070.88
2022-10-10T05:42:58.245Z,100072.06
2022-10-10T05:45:26.286Z,100071.75
2022-10-10T05:47:54.298Z,100074.53
2022-10-10T05:50:31.685Z,100066.22
2022-10-10T05:53:01.351Z,100064.00
2022-10-10T05:55:29.753Z,100067.72
2022-10-10T05:57:57.813Z,100061.59
2022-10-10T06:00:25.883Z,100070.06
2022-10-10T06:02:54.528Z,100069.16
2022-10-10T06:05:22.918Z,100070.34
2022-10-10T06:08:05.775Z,100063.88
2022-10-10T06:10:42.059Z,100068.13
2022-10-10T06:13:10.317Z,100063.59
2022-10-10T06:15:38.404Z,100070.38
2022-10-10T06:18:06.894Z,100067.16
2022-10-10T06:20:36.290Z,100064.63
2022-10-10T06:23:04.379Z,100065.06
2022-10-10T06:25:42.199Z,100066.19
2022-10-10T06:28:12.253Z,100070.13
2022-10-10T06:30:44.239Z,100068.44
2022-10-10T06:33:13.278Z,100062.94
2022-10-10T06:35:42.824Z,100063.38
2022-10-10T06:38:10.907Z,100060.81
2022-10-10T06:40:39.335Z,100060.28
2022-10-10T06:43:11.535Z,100061.97
2022-10-10T06:45:42.198Z,100055.47
2022-10-10T06:48:10.956Z,100050.38
2022-10-10T06:50:39.163Z,100054.91
2022-10-10T06:53:07.348Z,100055.75
2022-10-10T06:55:35.392Z,100062.78
2022-10-10T06:58:03.468Z,100058.53
2022-10-10T07:00:31.545Z,100064.97
2022-10-10T07:03:01.006Z,100055.41
2022-10-10T07:05:29.112Z,100059.06
2022-10-10T07:07:57.134Z,100056.25
2022-10-10T07:10:25.319Z,100058.47
2022-10-10T07:12:53.725Z,100057.25
2022-10-10T07:15:22.025Z,100054.38
2022-10-10T07:17:54.222Z,100055.22
2022-10-10T07:20:23.944Z,100060.34
2022-10-10T07:22:52.342Z,100069.53
2022-10-10T07:25:20.653Z,100057.91
2022-10-10T07:27:49.410Z,100063.53
2022-10-10T07:30:17.775Z,100054.31
2022-10-10T07:32:45.903Z,100055.06
2022-10-10T07:35:14.066Z,100049.66
2022-10-10T07:37:43.648Z,100050.97
2022-10-10T07:40:12.257Z,100041.38
2022-10-10T07:42:40.387Z,100043.41
2022-10-10T07:45:10.719Z,100041.31
2022-10-10T07:47:38.927Z,100039.63
2022-10-10T07:50:08.755Z,100043.91
2022-10-10T07:52:36.919Z,100045.09
2022-10-10T07:55:07.302Z,100037.88
2022-10-10T07:57:36.768Z,100044.19
2022-10-10T08:00:06.889Z,100042.50
2022-10-10T08:02:39.790Z,100037.50
2022-10-10T08:05:08.900Z,100046.47
2022-10-10T08:07:37.077Z,100047.88
2022-10-10T08:10:08.365Z,100042.41
2022-10-10T08:12:36.679Z,100043.88
2022-10-10T08:15:05.656Z,100047.28
2022-10-10T08:17:34.023Z,100040.22
2022-10-10T08:20:02.062Z,100036.78
2022-10-10T08:22:31.296Z,100036.09
2022-10-10T08:24:59.424Z,100033.41
2022-10-10T08:27:28.878Z,100037.84
2022-10-10T08:29:56.925Z,100018.31
2022-10-10T08:32:25.554Z,100034.59
2022-10-10T08:34:53.577Z,100021.16
2022-10-10T08:37:24.673Z,100025.28
2022-10-10T08:39:55.229Z,100017.97
2022-10-10T08:42:29.452Z,100009.16
2022-10-10T08:45:00.558Z,100004.41
2022-10-10T08:47:35.602Z,100006.22
2022-10-10T08:50:06.314Z,100003.41
2022-10-10T08:52:38.377Z,100000.44
2022-10-10T08:55:09.731Z,99998.91
2022-10-10T08:57:47.512Z,99998.34
2022-10-10T09:00:17.969Z,99997.31
2022-10-10T09:02:53.999Z,99993.81
2022-10-10T09:05:29.861Z,99984.38
2022-10-10T09:08:13.526Z,99991.69
2022-10-10T09:10:47.137Z,99989.72
2022-10-10T09:13:28.309Z,99991.59
2022-10-10T09:15:58.330Z,99983.16
2022-10-10T09:18:35.903Z,99979.47
2022-10-10T09:21:08.292Z,99978.50
2022-10-10T09:23:40.136Z,99978.50
2022-10-10T09:26:11.574Z,99976.31
2022-10-10T09:28:46.207Z,99979.34
2022-10-10T09:31:18.033Z,99974.47
2022-10-10T09:33:50.892Z,99969.59
2022-10-10T09:36:22.694Z,99976.00
2022-10-10T09:38:53.531Z,99963.91
2022-10-10T09:41:25.735Z,99973.66
2022-10-10T09:43:58.279Z,99970.47
2022-10-10T09:46:26.714Z,99968.59
2022-10-10T09:48:55.567Z,99971.13
2022-10-10T09:51:23.667Z,99962.16
2022-10-10T09:53:52.059Z,99965.84
2022-10-10T09:56:22.545Z,99960.94
2022-10-10T09:58:51.862Z,99957.91
2022-10-10T10:01:22.764Z,99959.22
2022-10-10T10:04:27.870Z,99947.91
2022-10-10T10:07:07.384Z,99953.63
2022-10-10T10:09:35.778Z,99958.63
2022-10-10T10:12:06.404Z,99956.94
2022-10-10T10:14:38.184Z,99954.09
2022-10-10T10:17:09.128Z,99946.47
2022-10-10T10:19:38.773Z,99953.94
2022-10-10T10:22:07.117Z,99961.25
2022-10-10T10:24:37.269Z,99962.19
2022-10-10T10:27:15.879Z,99946.09
2022-10-10T10:29:47.831Z,99948.06
2022-10-10T10:32:23.550Z,99948.06
2022-10-10T10:34:59.998Z,99950.00
2022-10-10T10:37:32.282Z,99955.22
2022-10-10T10:40:31.453Z,99941.00
2022-10-10T10:43:12.040Z,99936.78
2022-10-10T10:45:45.374Z,99947.19
2022-10-10T10:48:23.664Z,99942.47
2022-10-10T10:50:54.736Z,99932.81
2022-10-10T10:53:28.310Z,99933.75
2022-10-10T10:56:02.339Z,99949.06
2022-10-10T10:59:22.592Z,99935.66
2022-10-10T11:01:57.377Z,99947.31
2022-10-10T11:05:24.737Z,99941.38
2022-10-10T11:07:44.529Z,99936.81
2022-10-10T11:10:18.658Z,99935.91
2022-10-10T11:12:55.903Z,99935.63
2022-10-10T11:15:37.507Z,99939.56
2022-10-10T11:18:18.975Z,99938.97
2022-10-10T11:20:51.520Z,99940.94
2022-10-10T11:23:21.754Z,99931.59
2022-10-10T11:25:52.057Z,99935.00
2022-10-10T11:28:23.114Z,99928.00
2022-10-10T11:30:55.903Z,99933.16
2022-10-10T11:33:26.083Z,99927.28
2022-10-10T11:36:00.310Z,99922.66
2022-10-10T11:38:32.328Z,99932.56
2022-10-10T11:41:03.531Z,99931.47
2022-10-10T11:43:36.190Z,99932.44
2022-10-10T11:46:12.590Z,99938.06
2022-10-10T11:48:47.070Z,99925.41
2022-10-10T11:51:23.555Z,99921.28
2022-10-10T11:53:52.661Z,99927.47
2022-10-10T11:56:27.888Z,99927.81
2022-10-10T11:58:58.838Z,99927.47
2022-10-10T12:01:29.708Z,99921.91
2022-10-10T12:03:58.387Z,99926.28
2022-10-10T12:06:30.225Z,99915.56
2022-10-10T12:09:01.109Z,99921.13
2022-10-10T12:11:33.354Z,99914.38
2022-10-10T12:14:02.519Z,99913.91
2022-10-10T12:16:32.941Z,99917.56
2022-10-10T12:19:03.013Z,99909.22
2022-10-10T12:21:32.992Z,99907.59
2022-10-10T12:24:04.428Z,99908.25
2022-10-10T12:27:09.734Z,99906.97
2022-10-10T12:29:43.058Z,99899.31
2022-10-10T12:32:28.779Z,99893.25
2022-10-10T12:35:01.839Z,99899.13
2022-10-10T12:37:32.771Z,99893.06
2022-10-10T12:40:04.792Z,99893.56
2022-10-10T12:42:34.188Z,99890.78
2022-10-10T12:45:02.643Z,99895.84
2022-10-10T12:48:04.415Z,99884.84
2022-10-10T12:50:35.624Z,99885.34
2022-10-10T12:53:06.451Z,99871.91
2022-10-10T12:55:42.416Z,99879.41
2022-10-10T12:58:26.044Z,99881.38
2022-10-10T13:00:56.886Z,99872.44
2022-10-10T13:03:29.788Z,99864.06
2022-10-10T13:06:00.364Z,99863.38
2022-10-10T13:08:30.188Z,99867.91
2022-10-10T13:11:07.953Z,99859.59
2022-10-10T13:13:36.447Z,99864.06
2022-10-10T13:16:09.830Z,99855.88
2022-10-10T13:18:40.548Z,99859.69
2022-10-10T13:21:11.010Z,99865.56
2022-10-10T13:23:42.735Z,99859.59
2022-10-10T13:26:21.989Z,99863.06
2022-10-10T13:28:50.785Z,99866.00
2022-10-10T13:31:19.908Z,99863.13
2022-10-10T13:33:48.057Z,99863.66
2022-10-10T13:36:20.532Z,99859.47
2022-10-10T13:38:50.342Z,99853.53
2022-10-10T13:41:19.020Z,99861.19
2022-10-10T13:43:47.077Z,99853.63
2022-10-10T13:46:22.470Z,99856.88
2022-10-10T13:48:51.688Z,99852.03
2022-10-10T13:51:20.367Z,99843.97
2022-10-10T13:53:52.619Z,99840.72
2022-10-10T13:56:27.373Z,99840.22
2022-10-10T13:58:57.369Z,99835.06
2022-10-10T14:01:37.652Z,99834.75
2022-10-10T14:04:20.792Z,99833.59
2022-10-10T14:06:58.105Z,99833.75
2022-10-10T14:09:31.025Z,99834.81
2022-10-10T14:12:01.225Z,99832.00
2022-10-10T14:14:35.266Z,99838.13
2022-10-10T14:17:05.220Z,99832.66
2022-10-10T14:19:34.283Z,99827.34
2022-10-10T14:22:02.421Z,99829.09
2022-10-10T14:24:32.051Z,99826.97
2022-10-10T14:27:06.688Z,99826.22
2022-10-10T14:29:34.836Z,99820.25
2022-10-10T14:32:02.836Z,99822.34
2022-10-10T14:34:30.938Z,99830.50
2022-10-10T14:36:59.075Z,99823.06
2022-10-10T14:39:27.152Z,99829.09
2022-10-10T14:41:56.596Z,99824.84
2022-10-10T14:44:24.756Z,99819.94
2022-10-10T14:46:52.836Z,99820.94
2022-10-10T14:49:22.404Z,99813.81
2022-10-10T14:51:50.643Z,99820.06
2022-10-10T14:54:18.723Z,99823.41
2022-10-10T14:57:08.597Z,99827.94
2022-10-10T14:59:48.981Z,99836.03
2022-10-10T15:02:22.690Z,99824.41
2022-10-10T15:04:51.500Z,99826.25
2022-10-10T15:07:19.770Z,99823.25
2022-10-10T15:12:39.256Z,99820.06
2022-10-10T15:15:10.349Z,99827.81
2022-10-10T15:17:38.446Z,99816.16
2022-10-10T15:20:08.848Z,99830.06
2022-10-10T15:22:37.467Z,99819.44
2022-10-10T15:25:06.231Z,99824.25
2022-10-10T15:27:34.768Z,99830.19
2022-10-10T15:30:02.878Z,99826.53
2022-10-10T15:32:32.343Z,99830.75
2022-10-10T15:35:00.458Z,99825.94
2022-10-10T15:37:28.751Z,99827.50
2022-10-10T15:39:56.864Z,99830.75
2022-10-10T15:42:25.088Z,99832.84
2022-10-10T15:44:53.176Z,99829.19
2022-10-10T15:47:21.836Z,99830.88
2022-10-10T15:49:51.360Z,99824.84
2022-10-10T15:52:23.073Z,99836.19
2022-10-10T15:54:51.433Z,99833.75
2022-10-10T15:57:20.148Z,99830.06
2022-10-10T15:59:48.671Z,99837.31
2022-10-10T16:02:17.120Z,99841.88
2022-10-10T16:04:46.019Z,99840.25
2022-10-10T16:07:34.671Z,99846.84
2022-10-10T16:10:04.034Z,99850.06
2022-10-10T16:12:32.169Z,99851.75
2022-10-10T16:15:03.477Z,99855.31
2022-10-10T16:17:34.427Z,99852.44
2022-10-10T16:20:02.501Z,99854.69
2022-10-10T16:22:32.053Z,99858.56
2022-10-10T16:27:48.310Z,99850.66
2022-10-10T16:30:16.596Z,99859.56
2022-10-10T16:32:44.802Z,99860.75
2022-10-10T16:35:13.002Z,99854.19
2022-10-10T16:37:42.484Z,99855.19
2022-10-10T16:40:11.377Z,99855.19
2022-10-10T16:42:39.680Z,99853.69
2022-10-10T16:45:08.959Z,99848.31
2022-10-10T16:47:37.663Z,99854.84
2022-10-10T16:50:06.843Z,99864.63
2022-10-10T16:52:38.112Z,99858.91
2022-10-10T16:55:09.322Z,99871.88
2022-10-10T16:57:37.441Z,99875.09
2022-10-10T17:00:06.773Z,99875.94
2022-10-10T17:02:35.125Z,99868.34
2022-10-10T17:05:03.284Z,99873.41
2022-10-10T17:07:31.444Z,99878.78
2022-10-10T17:09:59.607Z,99868.34
2022-10-10T17:12:29.121Z,99876.59
2022-10-10T17:14:57.232Z,99862.78
2022-10-10T17:17:26.377Z,99871.19
2022-10-10T17:19:55.304Z,99864.66
2022-10-10T17:22:24.607Z,99863.13
2022-10-10T17:24:53.694Z,99859.28
2022-10-10T17:27:23.078Z,99863.63
2022-10-10T17:29:54.268Z,99859.78
2022-10-10T17:32:23.783Z,99865.50
2022-10-10T17:34:53.561Z,99869.34
2022-10-10T17:37:21.630Z,99870.53
2022-10-10T17:39:49.711Z,99863.97
2022-10-10T17:42:20.294Z,99866.00
2022-10-10T17:44:52.502Z,99871.38
2022-10-10T17:47:25.855Z,99878.25
2022-10-10T17:49:57.085Z,99876.91
2022-10-10T17:52:25.931Z,99875.72
2022-10-10T17:54:54.735Z,99876.22
2022-10-10T17:57:24.710Z,99871.38
2022-10-10T17:59:52.853Z,99873.88
2022-10-10T18:02:23.503Z,99874.69
2022-10-10T18:04:54.401Z,99873.34
2022-10-10T18:07:24.454Z,99870.66
2022-10-10T18:09:53.047Z,99870.09
2022-10-10T18:12:22.668Z,99873.50
2022-10-10T18:14:50.971Z,99875.09
2022-10-10T18:17:20.575Z,99874.13
2022-10-10T18:19:49.805Z,99872.44
2022-10-10T18:22:23.363Z,99866.22
2022-10-10T18:24:53.955Z,99874.25
2022-10-10T18:27:25.758Z,99873.25
2022-10-10T18:29:58.286Z,99866.34
2022-10-10T18:32:27.107Z,99863.19
2022-10-10T18:34:56.858Z,99866.22
2022-10-10T18:37:27.505Z,99874.25
2022-10-10T18:39:56.045Z,99862.31
2022-10-10T18:42:25.727Z,99864.00
2022-10-10T18:44:54.564Z,99867.16
2022-10-10T18:47:23.971Z,99868.88
2022-10-10T18:49:52.916Z,99865.53
2022-10-10T18:52:21.942Z,99868.03
2022-10-10T18:54:52.229Z,99875.59
2022-10-10T18:57:20.644Z,99871.88
2022-10-10T18:59:49.731Z,99868.66
2022-10-10T19:02:18.755Z,99870.00
2022-10-10T19:04:48.784Z,99875.38
2022-10-10T19:07:17.936Z,99881.63
2022-10-10T19:09:46.367Z,99883.78
2022-10-10T19:12:18.212Z,99883.75
2022-10-10T19:14:48.553Z,99877.03
2022-10-10T19:17:17.738Z,99886.44
2022-10-10T19:19:48.137Z,99897.13
2022-10-10T19:22:17.503Z,99886.94
2022-10-10T19:24:45.552Z,99886.94
2022-10-10T19:27:16.286Z,99891.09
2022-10-10T19:29:45.779Z,99888.91
2022-10-10T19:32:17.648Z,99890.09
2022-10-10T19:34:49.085Z,99894.91
2022-10-10T19:37:17.289Z,99890.25
2022-10-10T19:39:45.327Z,99889.72
2022-10-10T19:42:14.027Z,99894.44
2022-10-10T19:44:44.587Z,99890.88
2022-10-10T19:47:12.843Z,99889.13
2022-10-10T19:49:41.139Z,99891.75
2022-10-10T19:52:09.841Z,99898.63
2022-10-10T19:54:37.983Z,99894.69
2022-10-10T19:57:06.868Z,99898.25
2022-10-10T19:59:35.146Z,99893.03
2022-10-10T20:02:05.215Z,99900.44
2022-10-10T20:04:33.278Z,99897.69
2022-10-10T20:07:01.811Z,99894.81
2022-10-10T20:09:32.599Z,99897.97
2022-10-10T20:12:01.864Z,99898.72
2022-10-10T20:14:29.941Z,99904.41
2022-10-10T20:16:58.008Z,99901.84
2022-10-10T20:19:28.570Z,99902.56
2022-10-10T20:21:56.787Z,99904.44
2022-10-10T20:24:25.864Z,99906.19
2022-10-10T20:26:54.786Z,99897.81
2022-10-10T20:29:23.926Z,99910.72
2022-10-10T20:31:53.411Z,99901.78
2022-10-10T20:34:21.889Z,99918.09
2022-10-10T20:36:53.689Z,99924.28
2022-10-10T20:39:21.799Z,99917.94
2022-10-10T20:41:49.874Z,99923.16
2022-10-10T20:44:18.438Z,99919.16
2022-10-10T20:46:47.265Z,99921.41
2022-10-10T20:49:17.875Z,99930.59
2022-10-10T20:51:48.766Z,99922.81
2022-10-10T20:54:19.313Z,99925.28
2022-10-10T20:56:49.181Z,99925.22
2022-10-10T20:59:17.809Z,99927.41
2022-10-10T21:01:46.379Z,99924.72
2022-10-10T21:04:15.147Z,99929.09
2022-10-10T21:06:44.518Z,99929.25
2022-10-10T21:09:14.554Z,99926.34
2022-10-10T21:11:48.628Z,99930.75
2022-10-10T21:14:19.188Z,99930.09
2022-10-10T21:16:48.378Z,99933.97
2022-10-10T21:19:16.481Z,99932.16
2022-10-10T21:21:44.711Z,99925.03
2022-10-10T21:24:13.423Z,99926.94
2022-10-10T21:26:45.533Z,99934.53
2022-10-10T21:29:13.603Z,99936.91
2022-10-10T21:31:42.653Z,99934.28
2022-10-10T21:34:17.435Z,99930.81
2022-10-10T21:36:50.689Z,99931.06
2022-10-10T21:39:18.957Z,99922.03
2022-10-10T21:41:51.076Z,99931.88
2022-10-10T21:44:20.730Z,99931.34
2022-10-10T21:46:50.004Z,99943.34
2022-10-10T21:49:19.103Z,99932.00
2022-10-10T21:51:50.031Z,99933.44
2022-10-10T21:54:18.116Z,99944.03
2022-10-10T21:56:48.201Z,99947.81
2022-10-10T21:59:17.684Z,99946.44
2022-10-10T22:01:47.227Z,99947.66
2022-10-10T22:04:15.976Z,99945.81
2022-10-10T22:06:45.243Z,99951.19
2022-10-10T22:09:14.901Z,99938.59
2022-10-10T22:11:42.986Z,99939.38
2022-10-10T22:14:11.053Z,99933.09
2022-10-10T22:16:41.489Z,99941.91
2022-10-10T22:19:10.917Z,99940.00
2022-10-10T22:21:38.991Z,99940.91
2022-10-10T22:24:08.544Z,99938.47
2022-10-10T22:26:37.303Z,99933.91
2022-10-10T22:29:06.948Z,99932.34
2022-10-10T22:31:37.733Z,99940.16
2022-10-10T22:34:07.630Z,99933.47
2022-10-10T22:36:37.102Z,99937.00
2022-10-10T22:39:07.342Z,99939.22
2022-10-10T22:41:35.650Z,99931.66
2022-10-10T22:44:04.404Z,99936.94
2022-10-10T22:46:32.461Z,99938.22
2022-10-10T22:49:01.154Z,99931.09
2022-10-10T22:51:30.788Z,99936.47
2022-10-10T22:53:58.827Z,99926.66
2022-10-10T22:56:27.237Z,99927.19
2022-10-10T22:58:55.343Z,99936.78
2022-10-10T23:01:26.097Z,99932.19
2022-10-10T23:03:56.344Z,99928.03
2022-10-10T23:06:24.434Z,99937.00
2022-10-10T23:08:55.007Z,99936.00
2022-10-10T23:11:23.163Z,99945.38
2022-10-10T23:13:52.103Z,99935.66
2022-10-10T23:16:20.299Z,99928.88
2022-10-10T23:18:49.814Z,99932.13
2022-10-10T23:21:17.902Z,99942.38
2022-10-10T23:23:47.398Z,99926.81
2022-10-10T23:26:17.088Z,99941.00
2022-10-10T23:28:46.263Z,99932.69
2022-10-10T23:31:15.135Z,99938.47
2022-10-10T23:33:44.921Z,99931.94
2022-10-10T23:36:14.808Z,99936.09
2022-10-10T23:38:44.422Z,99940.16
2022-10-10T23:41:13.901Z,99933.19
2022-10-10T23:43:43.284Z,99944.66
2022-10-10T23:46:11.905Z,99949.50
2022-10-10T23:48:39.975Z,99951.16
2022-10-10T23:51:09.103Z,99956.97
2022-10-10T23:53:40.880Z,99959.19
2022-10-10T23:56:09.475Z,99956.53
2022-10-10T23:58:37.514Z,99947.50
